sensor_id;sensor_type;location;lat;lon;timestamp;P1;durP1;ratioP1;P2;durP2;ratioP2
27305;SDS011;14792;50.886;6.468;2022-11-25T00:00:51;13.48;;;2.67;;
27305;SDS011;14792;50.886;6.468;2022-11-25T00:03:53;19.40;;;3.37;;
27305;SDS011;14792;50.886;6.468;2022-11-25T00:06:54;18.20;;;3.25;;
27305;SDS011;14792;50.886;6.468;2022-11-25T00:09:55;17.67;;;3.55;;
27305;SDS011;14792;50.886;6.468;2022-11-25T00:12:57;17.77;;;3.30;;
27305;SDS011;14792;50.886;6.468;2022-11-25T00:16:02;22.17;;;4.60;;
27305;SDS011;14792;50.886;6.468;2022-11-25T00:19:03;20.62;;;4.35;;
27305;SDS011;14792;50.886;6.468;2022-11-25T00:22:05;21.27;;;3.45;;
27305;SDS011;14792;50.886;6.468;2022-11-25T00:25:06;16.65;;;3.20;;
27305;SDS011;14792;50.886;6.468;2022-11-25T00:28:09;21.57;;;3.60;;
27305;SDS011;14792;50.886;6.468;2022-11-25T00:31:12;23.73;;;3.55;;
27305;SDS011;14792;50.886;6.468;2022-11-25T00:34:15;18.07;;;3.25;;
27305;SDS011;14792;50.886;6.468;2022-11-25T00:37:17;15.35;;;3.17;;
27305;SDS011;14792;50.886;6.468;2022-11-25T00:40:18;22.52;;;4.17;;
27305;SDS011;14792;50.886;6.468;2022-11-25T00:43:20;19.48;;;2.72;;
27305;SDS011;14792;50.886;6.468;2022-11-25T00:46:40;19.17;;;3.30;;
27305;SDS011;14792;50.886;6.468;2022-11-25T00:49:45;17.35;;;3.02;;
27305;SDS011;14792;50.886;6.468;2022-11-25T00:52:43;17.98;;;4.22;;
27305;SDS011;14792;50.886;6.468;2022-11-25T00:55:45;18.73;;;3.17;;
27305;SDS011;14792;50.886;6.468;2022-11-25T00:58:49;24.20;;;3.40;;
27305;SDS011;14792;50.886;6.468;2022-11-25T01:01:50;17.17;;;2.35;;
27305;SDS011;14792;50.886;6.468;2022-11-25T01:04:52;22.75;;;3.22;;
27305;SDS011;14792;50.886;6.468;2022-11-25T01:07:54;17.17;;;3.65;;
27305;SDS011;14792;50.886;6.468;2022-11-25T01:11:02;12.10;;;3.15;;
27305;SDS011;14792;50.886;6.468;2022-11-25T01:14:03;21.82;;;3.27;;
27305;SDS011;14792;50.886;6.468;2022-11-25T01:17:04;22.32;;;3.67;;
27305;SDS011;14792;50.886;6.468;2022-11-25T01:20:06;18.25;;;3.72;;
27305;SDS011;14792;50.886;6.468;2022-11-25T01:23:09;21.65;;;3.33;;
27305;SDS011;14792;50.886;6.468;2022-11-25T01:26:11;16.77;;;3.35;;
27305;SDS011;14792;50.886;6.468;2022-11-25T01:29:16;23.83;;;3.45;;
27305;SDS011;14792;50.886;6.468;2022-11-25T01:32:16;19.23;;;3.22;;
27305;SDS011;14792;50.886;6.468;2022-11-25T01:35:18;23.25;;;3.90;;
27305;SDS011;14792;50.886;6.468;2022-11-25T01:38:20;21.33;;;3.52;;
27305;SDS011;14792;50.886;6.468;2022-11-25T01:41:22;22.62;;;3.58;;
27305;SDS011;14792;50.886;6.468;2022-11-25T01:44:25;22.55;;;3.85;;
27305;SDS011;14792;50.886;6.468;2022-11-25T01:47:24;18.42;;;3.50;;
27305;SDS011;14792;50.886;6.468;2022-11-25T01:50:26;19.65;;;3.10;;
27305;SDS011;14792;50.886;6.468;2022-11-25T01:53:27;25.82;;;3.72;;
27305;SDS011;14792;50.886;6.468;2022-11-25T01:56:29;17.92;;;4.17;;
27305;SDS011;14792;50.886;6.468;2022-11-25T01:59:31;19.85;;;3.87;;
27305;SDS011;14792;50.886;6.468;2022-11-25T02:02:32;21.05;;;3.95;;
27305;SDS011;14792;50.886;6.468;2022-11-25T02:09:06;23.55;;;3.67;;
27305;SDS011;14792;50.886;6.468;2022-11-25T02:12:08;14.63;;;3.67;;
27305;SDS011;14792;50.886;6.468;2022-11-25T02:15:10;13.72;;;3.20;;
27305;SDS011;14792;50.886;6.468;2022-11-25T02:18:12;16.93;;;3.22;;
27305;SDS011;14792;50.886;6.468;2022-11-25T02:21:14;22.98;;;3.67;;
27305;SDS011;14792;50.886;6.468;2022-11-25T02:24:25;26.07;;;3.12;;
27305;SDS011;14792;50.886;6.468;2022-11-25T02:27:26;20.50;;;3.90;;
27305;SDS011;14792;50.886;6.468;2022-11-25T02:30:27;21.68;;;3.47;;
27305;SDS011;14792;50.886;6.468;2022-11-25T02:33:29;21.93;;;3.98;;
27305;SDS011;14792;50.886;6.468;2022-11-25T02:36:30;19.50;;;3.50;;
27305;SDS011;14792;50.886;6.468;2022-11-25T02:39:32;20.35;;;3.15;;
27305;SDS011;14792;50.886;6.468;2022-11-25T02:42:34;23.52;;;3.65;;
27305;SDS011;14792;50.886;6.468;2022-11-25T02:45:38;20.77;;;3.05;;
27305;SDS011;14792;50.886;6.468;2022-11-25T02:48:41;19.00;;;3.70;;
27305;SDS011;14792;50.886;6.468;2022-11-25T02:51:43;10.95;;;2.83;;
27305;SDS011;14792;50.886;6.468;2022-11-25T02:54:44;21.42;;;3.98;;
27305;SDS011;14792;50.886;6.468;2022-11-25T02:57:46;21.87;;;3.50;;
27305;SDS011;14792;50.886;6.468;2022-11-25T03:00:48;15.45;;;3.27;;
27305;SDS011;14792;50.886;6.468;2022-11-25T03:03:49;18.57;;;2.90;;
27305;SDS011;14792;50.886;6.468;2022-11-25T03:06:51;20.57;;;3.95;;
27305;SDS011;14792;50.886;6.468;2022-11-25T03:09:52;17.70;;;3.80;;
27305;SDS011;14792;50.886;6.468;2022-11-25T03:12:54;20.27;;;3.98;;
27305;SDS011;14792;50.886;6.468;2022-11-25T03:15:56;20.43;;;3.30;;
27305;SDS011;14792;50.886;6.468;2022-11-25T03:18:57;15.55;;;3.85;;
27305;SDS011;14792;50.886;6.468;2022-11-25T03:21:59;17.37;;;3.20;;
27305;SDS011;14792;50.886;6.468;2022-11-25T03:25:00;14.43;;;3.65;;
27305;SDS011;14792;50.886;6.468;2022-11-25T03:28:02;17.92;;;3.42;;
27305;SDS011;14792;50.886;6.468;2022-11-25T03:31:03;16.02;;;3.65;;
27305;SDS011;14792;50.886;6.468;2022-11-25T03:34:05;16.87;;;3.90;;
27305;SDS011;14792;50.886;6.468;2022-11-25T03:37:07;13.88;;;3.77;;
27305;SDS011;14792;50.886;6.468;2022-11-25T03:40:10;17.40;;;3.67;;
27305;SDS011;14792;50.886;6.468;2022-11-25T03:43:11;19.90;;;3.45;;
27305;SDS011;14792;50.886;6.468;2022-11-25T03:46:13;21.40;;;4.72;;
27305;SDS011;14792;50.886;6.468;2022-11-25T03:49:14;15.93;;;3.55;;
27305;SDS011;14792;50.886;6.468;2022-11-25T03:52:16;19.00;;;3.55;;
27305;SDS011;14792;50.886;6.468;2022-11-25T03:55:17;17.17;;;3.83;;
27305;SDS011;14792;50.886;6.468;2022-11-25T03:58:19;12.60;;;3.15;;
27305;SDS011;14792;50.886;6.468;2022-11-25T04:01:21;18.55;;;3.60;;
27305;SDS011;14792;50.886;6.468;2022-11-25T04:04:22;14.38;;;3.05;;
27305;SDS011;14792;50.886;6.468;2022-11-25T04:07:24;19.10;;;3.65;;
27305;SDS011;14792;50.886;6.468;2022-11-25T04:10:25;17.87;;;3.15;;
27305;SDS011;14792;50.886;6.468;2022-11-25T04:13:27;15.80;;;4.35;;
27305;SDS011;14792;50.886;6.468;2022-11-25T04:16:28;15.83;;;3.42;;
27305;SDS011;14792;50.886;6.468;2022-11-25T04:19:30;16.10;;;4.10;;
27305;SDS011;14792;50.886;6.468;2022-11-25T04:22:32;23.20;;;4.12;;
27305;SDS011;14792;50.886;6.468;2022-11-25T04:25:34;25.20;;;4.30;;
27305;SDS011;14792;50.886;6.468;2022-11-25T04:28:35;16.40;;;3.65;;
27305;SDS011;14792;50.886;6.468;2022-11-25T04:31:36;20.35;;;3.10;;
27305;SDS011;14792;50.886;6.468;2022-11-25T04:34:38;16.40;;;3.75;;
27305;SDS011;14792;50.886;6.468;2022-11-25T04:40:44;15.90;;;3.72;;
27305;SDS011;14792;50.886;6.468;2022-11-25T04:43:46;22.58;;;3.87;;
27305;SDS011;14792;50.886;6.468;2022-11-25T04:46:47;19.75;;;3.55;;
27305;SDS011;14792;50.886;6.468;2022-11-25T04:49:49;13.50;;;3.25;;
27305;SDS011;14792;50.886;6.468;2022-11-25T04:52:50;17.35;;;3.42;;
27305;SDS011;14792;50.886;6.468;2022-11-25T04:55:52;25.08;;;4.10;;
27305;SDS011;14792;50.886;6.468;2022-11-25T04:58:54;21.97;;;3.90;;
27305;SDS011;14792;50.886;6.468;2022-11-25T05:02:20;18.80;;;3.67;;
27305;SDS011;14792;50.886;6.468;2022-11-25T05:05:23;22.35;;;4.00;;
27305;SDS011;14792;50.886;6.468;2022-11-25T05:08:25;24.02;;;4.28;;
27305;SDS011;14792;50.886;6.468;2022-11-25T05:11:26;21.07;;;4.42;;
27305;SDS011;14792;50.886;6.468;2022-11-25T05:14:28;12.93;;;3.85;;
27305;SDS011;14792;50.886;6.468;2022-11-25T05:17:30;19.42;;;3.45;;
27305;SDS011;14792;50.886;6.468;2022-11-25T05:20:31;14.30;;;3.55;;
27305;SDS011;14792;50.886;6.468;2022-11-25T05:23:33;21.50;;;6.37;;
27305;SDS011;14792;50.886;6.468;2022-11-25T05:26:34;18.20;;;6.55;;
27305;SDS011;14792;50.886;6.468;2022-11-25T05:29:36;21.95;;;5.42;;
27305;SDS011;14792;50.886;6.468;2022-11-25T05:32:38;14.33;;;4.92;;
27305;SDS011;14792;50.886;6.468;2022-11-25T05:35:39;29.82;;;5.72;;
27305;SDS011;14792;50.886;6.468;2022-11-25T05:38:43;16.45;;;5.28;;
27305;SDS011;14792;50.886;6.468;2022-11-25T05:41:44;19.35;;;3.98;;
27305;SDS011;14792;50.886;6.468;2022-11-25T05:44:46;20.32;;;4.58;;
27305;SDS011;14792;50.886;6.468;2022-11-25T05:47:47;17.32;;;4.00;;
27305;SDS011;14792;50.886;6.468;2022-11-25T05:50:49;20.30;;;4.22;;
27305;SDS011;14792;50.886;6.468;2022-11-25T05:53:50;22.67;;;4.40;;
27305;SDS011;14792;50.886;6.468;2022-11-25T05:56:52;22.25;;;4.10;;
27305;SDS011;14792;50.886;6.468;2022-11-25T05:59:54;22.15;;;4.37;;
27305;SDS011;14792;50.886;6.468;2022-11-25T06:02:55;21.97;;;4.28;;
27305;SDS011;14792;50.886;6.468;2022-11-25T06:05:57;27.07;;;4.53;;
27305;SDS011;14792;50.886;6.468;2022-11-25T06:08:59;25.27;;;5.47;;
27305;SDS011;14792;50.886;6.468;2022-11-25T06:12:00;34.53;;;13.43;;
27305;SDS011;14792;50.886;6.468;2022-11-25T06:15:02;21.62;;;7.37;;
27305;SDS011;14792;50.886;6.468;2022-11-25T06:18:03;13.00;;;4.37;;
27305;SDS011;14792;50.886;6.468;2022-11-25T06:21:05;12.90;;;3.77;;
27305;SDS011;14792;50.886;6.468;2022-11-25T06:24:06;14.45;;;3.37;;
27305;SDS011;14792;50.886;6.468;2022-11-25T06:27:08;10.55;;;1.77;;
27305;SDS011;14792;50.886;6.468;2022-11-25T06:30:10;7.05;;;1.77;;
27305;SDS011;14792;50.886;6.468;2022-11-25T06:33:12;8.25;;;1.92;;
27305;SDS011;14792;50.886;6.468;2022-11-25T06:36:13;8.05;;;2.33;;
27305;SDS011;14792;50.886;6.468;2022-11-25T06:39:18;5.37;;;2.22;;
27305;SDS011;14792;50.886;6.468;2022-11-25T06:42:19;4.67;;;1.70;;
27305;SDS011;14792;50.886;6.468;2022-11-25T06:45:21;8.55;;;2.00;;
27305;SDS011;14792;50.886;6.468;2022-11-25T06:48:23;7.22;;;1.87;;
27305;SDS011;14792;50.886;6.468;2022-11-25T06:51:24;7.12;;;2.10;;
27305;SDS011;14792;50.886;6.468;2022-11-25T06:54:26;9.05;;;2.20;;
27305;SDS011;14792;50.886;6.468;2022-11-25T06:57:27;9.25;;;1.98;;
27305;SDS011;14792;50.886;6.468;2022-11-25T07:00:29;6.72;;;2.12;;
27305;SDS011;14792;50.886;6.468;2022-11-25T07:03:30;10.08;;;2.80;;
27305;SDS011;14792;50.886;6.468;2022-11-25T07:06:32;10.55;;;2.80;;
27305;SDS011;14792;50.886;6.468;2022-11-25T07:09:34;8.83;;;2.65;;
27305;SDS011;14792;50.886;6.468;2022-11-25T07:12:35;7.10;;;3.25;;
27305;SDS011;14792;50.886;6.468;2022-11-25T07:15:37;10.43;;;3.62;;
27305;SDS011;14792;50.886;6.468;2022-11-25T07:18:39;11.78;;;4.03;;
27305;SDS011;14792;50.886;6.468;2022-11-25T07:21:40;9.00;;;3.50;;
27305;SDS011;14792;50.886;6.468;2022-11-25T07:24:42;8.95;;;2.55;;
27305;SDS011;14792;50.886;6.468;2022-11-25T07:27:43;8.60;;;3.10;;
27305;SDS011;14792;50.886;6.468;2022-11-25T07:30:45;9.53;;;2.77;;
27305;SDS011;14792;50.886;6.468;2022-11-25T07:33:47;15.78;;;3.52;;
27305;SDS011;14792;50.886;6.468;2022-11-25T07:36:48;14.53;;;3.87;;
27305;SDS011;14792;50.886;6.468;2022-11-25T07:39:50;11.03;;;3.20;;
27305;SDS011;14792;50.886;6.468;2022-11-25T07:42:51;16.15;;;3.22;;
27305;SDS011;14792;50.886;6.468;2022-11-25T07:45:53;10.80;;;3.50;;
27305;SDS011;14792;50.886;6.468;2022-11-25T07:48:55;12.05;;;3.10;;
27305;SDS011;14792;50.886;6.468;2022-11-25T07:51:56;17.20;;;2.80;;
27305;SDS011;14792;50.886;6.468;2022-11-25T07:54:58;12.88;;;2.77;;
27305;SDS011;14792;50.886;6.468;2022-11-25T07:57:59;13.08;;;3.60;;
27305;SDS011;14792;50.886;6.468;2022-11-25T08:01:05;21.70;;;3.30;;
27305;SDS011;14792;50.886;6.468;2022-11-25T08:04:02;13.00;;;2.77;;
27305;SDS011;14792;50.886;6.468;2022-11-25T08:07:04;12.37;;;2.70;;
27305;SDS011;14792;50.886;6.468;2022-11-25T08:10:06;16.42;;;3.95;;
27305;SDS011;14792;50.886;6.468;2022-11-25T08:13:07;14.10;;;3.35;;
27305;SDS011;14792;50.886;6.468;2022-11-25T08:16:10;11.95;;;2.95;;
27305;SDS011;14792;50.886;6.468;2022-11-25T08:19:12;8.28;;;2.95;;
27305;SDS011;14792;50.886;6.468;2022-11-25T08:22:13;15.03;;;3.25;;
27305;SDS011;14792;50.886;6.468;2022-11-25T08:25:15;16.07;;;3.58;;
27305;SDS011;14792;50.886;6.468;2022-11-25T08:28:16;12.30;;;3.75;;
27305;SDS011;14792;50.886;6.468;2022-11-25T08:31:22;13.15;;;3.10;;
27305;SDS011;14792;50.886;6.468;2022-11-25T08:34:25;16.40;;;3.17;;
27305;SDS011;14792;50.886;6.468;2022-11-25T08:37:29;12.05;;;2.77;;
27305;SDS011;14792;50.886;6.468;2022-11-25T08:40:28;16.80;;;2.72;;
27305;SDS011;14792;50.886;6.468;2022-11-25T08:43:30;17.92;;;3.42;;
27305;SDS011;14792;50.886;6.468;2022-11-25T08:46:32;12.53;;;3.45;;
27305;SDS011;14792;50.886;6.468;2022-11-25T08:49:36;15.38;;;3.02;;
27305;SDS011;14792;50.886;6.468;2022-11-25T08:52:37;12.50;;;2.60;;
27305;SDS011;14792;50.886;6.468;2022-11-25T08:55:39;17.30;;;3.02;;
27305;SDS011;14792;50.886;6.468;2022-11-25T08:58:41;13.95;;;2.72;;
27305;SDS011;14792;50.886;6.468;2022-11-25T09:01:42;15.05;;;2.60;;
27305;SDS011;14792;50.886;6.468;2022-11-25T09:04:44;15.05;;;2.80;;
27305;SDS011;14792;50.886;6.468;2022-11-25T09:07:46;15.83;;;2.80;;
27305;SDS011;14792;50.886;6.468;2022-11-25T09:10:47;18.25;;;2.95;;
27305;SDS011;14792;50.886;6.468;2022-11-25T09:13:49;12.53;;;2.83;;
27305;SDS011;14792;50.886;6.468;2022-11-25T09:16:50;14.98;;;3.50;;
27305;SDS011;14792;50.886;6.468;2022-11-25T09:19:53;19.62;;;3.92;;
27305;SDS011;14792;50.886;6.468;2022-11-25T09:22:54;14.00;;;3.15;;
27305;SDS011;14792;50.886;6.468;2022-11-25T09:25:56;16.25;;;3.42;;
27305;SDS011;14792;50.886;6.468;2022-11-25T09:28:57;11.20;;;2.47;;
27305;SDS011;14792;50.886;6.468;2022-11-25T09:31:58;17.55;;;3.20;;
27305;SDS011;14792;50.886;6.468;2022-11-25T09:35:00;18.27;;;3.17;;
27305;SDS011;14792;50.886;6.468;2022-11-25T09:38:02;10.10;;;2.75;;
27305;SDS011;14792;50.886;6.468;2022-11-25T09:41:16;17.05;;;2.50;;
27305;SDS011;14792;50.886;6.468;2022-11-25T09:51:20;22.05;;;3.10;;
27305;SDS011;14792;50.886;6.468;2022-11-25T09:54:23;15.20;;;3.52;;
27305;SDS011;14792;50.886;6.468;2022-11-25T09:57:38;13.68;;;3.10;;
27305;SDS011;14792;50.886;6.468;2022-11-25T10:00:37;13.45;;;2.67;;
27305;SDS011;14792;50.886;6.468;2022-11-25T10:03:41;13.90;;;3.20;;
27305;SDS011;14792;50.886;6.468;2022-11-25T10:06:54;13.53;;;2.87;;
27305;SDS011;14792;50.886;6.468;2022-11-25T10:09:54;17.15;;;2.77;;
27305;SDS011;14792;50.886;6.468;2022-11-25T10:12:56;18.00;;;3.08;;
27305;SDS011;14792;50.886;6.468;2022-11-25T10:15:58;16.35;;;3.02;;
27305;SDS011;14792;50.886;6.468;2022-11-25T10:19:00;22.10;;;3.05;;
27305;SDS011;14792;50.886;6.468;2022-11-25T10:22:01;19.27;;;3.70;;
27305;SDS011;14792;50.886;6.468;2022-11-25T10:25:08;15.30;;;3.40;;
27305;SDS011;14792;50.886;6.468;2022-11-25T10:28:09;18.20;;;2.95;;
27305;SDS011;14792;50.886;6.468;2022-11-25T10:31:09;24.05;;;3.55;;
27305;SDS011;14792;50.886;6.468;2022-11-25T10:37:38;15.95;;;3.05;;
27305;SDS011;14792;50.886;6.468;2022-11-25T10:40:37;14.18;;;3.42;;
27305;SDS011;14792;50.886;6.468;2022-11-25T10:43:39;21.73;;;4.05;;
27305;SDS011;14792;50.886;6.468;2022-11-25T10:46:43;22.77;;;4.08;;
27305;SDS011;14792;50.886;6.468;2022-11-25T10:53:07;26.45;;;3.60;;
27305;SDS011;14792;50.886;6.468;2022-11-25T10:56:16;25.35;;;4.35;;
27305;SDS011;14792;50.886;6.468;2022-11-25T10:59:36;22.48;;;4.22;;
27305;SDS011;14792;50.886;6.468;2022-11-25T11:05:24;17.50;;;3.55;;
27305;SDS011;14792;50.886;6.468;2022-11-25T11:08:26;22.02;;;3.50;;
27305;SDS011;14792;50.886;6.468;2022-11-25T11:11:26;21.73;;;3.40;;
27305;SDS011;14792;50.886;6.468;2022-11-25T11:14:28;18.82;;;3.35;;
27305;SDS011;14792;50.886;6.468;2022-11-25T11:17:33;25.15;;;3.98;;
27305;SDS011;14792;50.886;6.468;2022-11-25T11:20:31;22.27;;;4.12;;
27305;SDS011;14792;50.886;6.468;2022-11-25T11:23:46;22.32;;;3.70;;
27305;SDS011;14792;50.886;6.468;2022-11-25T11:26:34;21.70;;;3.92;;
27305;SDS011;14792;50.886;6.468;2022-11-25T11:29:35;22.80;;;3.75;;
27305;SDS011;14792;50.886;6.468;2022-11-25T11:32:37;25.20;;;4.33;;
27305;SDS011;14792;50.886;6.468;2022-11-25T11:48:25;22.42;;;3.92;;
27305;SDS011;14792;50.886;6.468;2022-11-25T11:54:45;22.10;;;4.05;;
27305;SDS011;14792;50.886;6.468;2022-11-25T12:01:06;20.57;;;3.95;;
27305;SDS011;14792;50.886;6.468;2022-11-25T12:04:18;19.23;;;4.22;;
27305;SDS011;14792;50.886;6.468;2022-11-25T12:10:59;17.02;;;3.22;;
27305;SDS011;14792;50.886;6.468;2022-11-25T12:13:59;19.50;;;3.77;;
27305;SDS011;14792;50.886;6.468;2022-11-25T12:17:05;17.85;;;3.42;;
27305;SDS011;14792;50.886;6.468;2022-11-25T12:20:21;24.50;;;4.10;;
27305;SDS011;14792;50.886;6.468;2022-11-25T12:23:23;15.50;;;3.70;;
27305;SDS011;14792;50.886;6.468;2022-11-25T12:26:39;30.72;;;4.42;;
27305;SDS011;14792;50.886;6.468;2022-11-25T12:29:45;18.85;;;3.17;;
27305;SDS011;14792;50.886;6.468;2022-11-25T12:36:05;21.82;;;3.30;;
27305;SDS011;14792;50.886;6.468;2022-11-25T12:42:29;14.38;;;3.37;;
27305;SDS011;14792;50.886;6.468;2022-11-25T12:45:30;20.15;;;4.67;;
27305;SDS011;14792;50.886;6.468;2022-11-25T12:48:32;21.00;;;4.30;;
27305;SDS011;14792;50.886;6.468;2022-11-25T13:01:38;18.55;;;3.20;;
27305;SDS011;14792;50.886;6.468;2022-11-25T13:04:47;22.20;;;3.52;;
27305;SDS011;14792;50.886;6.468;2022-11-25T13:07:47;23.10;;;3.83;;
27305;SDS011;14792;50.886;6.468;2022-11-25T13:14:23;14.80;;;3.17;;
27305;SDS011;14792;50.886;6.468;2022-11-25T13:17:40;20.75;;;3.50;;
27305;SDS011;14792;50.886;6.468;2022-11-25T13:20:43;19.95;;;3.25;;
27305;SDS011;14792;50.886;6.468;2022-11-25T13:23:47;16.32;;;2.90;;
27305;SDS011;14792;50.886;6.468;2022-11-25T13:26:45;14.63;;;3.15;;
27305;SDS011;14792;50.886;6.468;2022-11-25T13:29:52;16.97;;;3.70;;
27305;SDS011;14792;50.886;6.468;2022-11-25T13:32:54;22.17;;;3.52;;
27305;SDS011;14792;50.886;6.468;2022-11-25T13:35:55;13.80;;;2.77;;
27305;SDS011;14792;50.886;6.468;2022-11-25T13:38:57;13.95;;;2.98;;
27305;SDS011;14792;50.886;6.468;2022-11-25T13:48:29;19.73;;;2.98;;
27305;SDS011;14792;50.886;6.468;2022-11-25T13:51:30;20.30;;;3.47;;
27305;SDS011;14792;50.886;6.468;2022-11-25T13:54:34;14.15;;;2.92;;
27305;SDS011;14792;50.886;6.468;2022-11-25T13:57:34;18.32;;;3.02;;
27305;SDS011;14792;50.886;6.468;2022-11-25T14:03:40;12.35;;;2.37;;
27305;SDS011;14792;50.886;6.468;2022-11-25T14:19:45;17.55;;;2.98;;
27305;SDS011;14792;50.886;6.468;2022-11-25T14:22:55;15.25;;;3.02;;
27305;SDS011;14792;50.886;6.468;2022-11-25T14:26:09;18.40;;;3.05;;
27305;SDS011;14792;50.886;6.468;2022-11-25T14:32:32;12.60;;;3.15;;
27305;SDS011;14792;50.886;6.468;2022-11-25T14:35:35;18.27;;;3.08;;
27305;SDS011;14792;50.886;6.468;2022-11-25T14:38:48;12.03;;;2.87;;
27305;SDS011;14792;50.886;6.468;2022-11-25T14:44:55;12.60;;;3.00;;
27305;SDS011;14792;50.886;6.468;2022-11-25T14:47:57;14.35;;;3.42;;
27305;SDS011;14792;50.886;6.468;2022-11-25T14:50:59;11.30;;;3.25;;
27305;SDS011;14792;50.886;6.468;2022-11-25T14:54:00;12.90;;;2.95;;
27305;SDS011;14792;50.886;6.468;2022-11-25T14:57:01;15.78;;;3.52;;
27305;SDS011;14792;50.886;6.468;2022-11-25T15:00:07;11.95;;;2.60;;
27305;SDS011;14792;50.886;6.468;2022-11-25T15:03:13;15.03;;;2.85;;
27305;SDS011;14792;50.886;6.468;2022-11-25T15:06:10;17.82;;;3.27;;
27305;SDS011;14792;50.886;6.468;2022-11-25T15:09:22;17.77;;;6.20;;
27305;SDS011;14792;50.886;6.468;2022-11-25T15:12:30;12.25;;;3.47;;
27305;SDS011;14792;50.886;6.468;2022-11-25T15:15:26;18.48;;;5.05;;
27305;SDS011;14792;50.886;6.468;2022-11-25T15:18:28;19.52;;;3.85;;
27305;SDS011;14792;50.886;6.468;2022-11-25T15:21:30;22.95;;;4.47;;
27305;SDS011;14792;50.886;6.468;2022-11-25T15:24:42;19.82;;;3.12;;
27305;SDS011;14792;50.886;6.468;2022-11-25T15:27:45;13.32;;;2.90;;
27305;SDS011;14792;50.886;6.468;2022-11-25T15:30:55;16.55;;;3.60;;
27305;SDS011;14792;50.886;6.468;2022-11-25T15:33:57;16.35;;;2.50;;
27305;SDS011;14792;50.886;6.468;2022-11-25T15:36:59;13.38;;;2.62;;
27305;SDS011;14792;50.886;6.468;2022-11-25T15:43:31;15.75;;;3.42;;
27305;SDS011;14792;50.886;6.468;2022-11-25T15:46:33;12.00;;;3.62;;
27305;SDS011;14792;50.886;6.468;2022-11-25T15:49:34;10.20;;;2.85;;
27305;SDS011;14792;50.886;6.468;2022-11-25T15:52:37;20.12;;;4.00;;
27305;SDS011;14792;50.886;6.468;2022-11-25T15:55:37;11.48;;;3.58;;
27305;SDS011;14792;50.886;6.468;2022-11-25T15:58:40;14.63;;;3.52;;
27305;SDS011;14792;50.886;6.468;2022-11-25T16:01:40;14.07;;;3.37;;
27305;SDS011;14792;50.886;6.468;2022-11-25T16:04:42;11.10;;;2.92;;
27305;SDS011;14792;50.886;6.468;2022-11-25T16:10:52;10.38;;;2.60;;
27305;SDS011;14792;50.886;6.468;2022-11-25T16:13:53;11.05;;;2.35;;
27305;SDS011;14792;50.886;6.468;2022-11-25T16:16:59;12.93;;;3.12;;
27305;SDS011;14792;50.886;6.468;2022-11-25T16:19:59;11.50;;;2.50;;
27305;SDS011;14792;50.886;6.468;2022-11-25T16:23:05;13.53;;;2.70;;
27305;SDS011;14792;50.886;6.468;2022-11-25T16:29:16;13.88;;;2.98;;
27305;SDS011;14792;50.886;6.468;2022-11-25T16:32:18;12.03;;;3.15;;
27305;SDS011;14792;50.886;6.468;2022-11-25T16:35:19;11.70;;;3.25;;
27305;SDS011;14792;50.886;6.468;2022-11-25T16:38:20;15.30;;;3.25;;
27305;SDS011;14792;50.886;6.468;2022-11-25T16:41:22;14.87;;;3.00;;
27305;SDS011;14792;50.886;6.468;2022-11-25T16:44:24;16.95;;;3.98;;
27305;SDS011;14792;50.886;6.468;2022-11-25T16:47:25;16.10;;;3.22;;
27305;SDS011;14792;50.886;6.468;2022-11-25T16:50:27;19.60;;;3.75;;
27305;SDS011;14792;50.886;6.468;2022-11-25T16:53:28;21.07;;;4.25;;
27305;SDS011;14792;50.886;6.468;2022-11-25T16:56:30;14.13;;;3.90;;
27305;SDS011;14792;50.886;6.468;2022-11-25T16:59:34;17.75;;;3.67;;
27305;SDS011;14792;50.886;6.468;2022-11-25T17:02:36;13.30;;;3.22;;
27305;SDS011;14792;50.886;6.468;2022-11-25T17:05:37;16.82;;;2.87;;
27305;SDS011;14792;50.886;6.468;2022-11-25T17:08:40;15.70;;;3.47;;
27305;SDS011;14792;50.886;6.468;2022-11-25T17:11:48;12.40;;;3.25;;
27305;SDS011;14792;50.886;6.468;2022-11-25T17:14:48;18.80;;;3.08;;
27305;SDS011;14792;50.886;6.468;2022-11-25T17:17:50;18.37;;;4.03;;
27305;SDS011;14792;50.886;6.468;2022-11-25T17:20:52;14.90;;;3.42;;
27305;SDS011;14792;50.886;6.468;2022-11-25T17:23:54;17.92;;;3.45;;
27305;SDS011;14792;50.886;6.468;2022-11-25T17:27:04;17.02;;;2.87;;
27305;SDS011;14792;50.886;6.468;2022-11-25T17:30:03;19.17;;;3.45;;
27305;SDS011;14792;50.886;6.468;2022-11-25T17:33:04;15.40;;;3.60;;
27305;SDS011;14792;50.886;6.468;2022-11-25T17:36:07;13.95;;;3.05;;
27305;SDS011;14792;50.886;6.468;2022-11-25T17:39:08;16.48;;;3.65;;
27305;SDS011;14792;50.886;6.468;2022-11-25T17:42:15;16.57;;;3.67;;
27305;SDS011;14792;50.886;6.468;2022-11-25T17:45:19;15.93;;;3.60;;
27305;SDS011;14792;50.886;6.468;2022-11-25T17:48:20;19.92;;;4.65;;
27305;SDS011;14792;50.886;6.468;2022-11-25T17:51:22;23.00;;;5.40;;
27305;SDS011;14792;50.886;6.468;2022-11-25T17:54:23;18.85;;;4.40;;
27305;SDS011;14792;50.886;6.468;2022-11-25T17:57:25;16.20;;;3.65;;
27305;SDS011;14792;50.886;6.468;2022-11-25T18:00:26;17.20;;;4.35;;
27305;SDS011;14792;50.886;6.468;2022-11-25T18:03:28;17.27;;;5.03;;
27305;SDS011;14792;50.886;6.468;2022-11-25T18:06:29;20.88;;;4.47;;
27305;SDS011;14792;50.886;6.468;2022-11-25T18:09:31;26.95;;;5.10;;
27305;SDS011;14792;50.886;6.468;2022-11-25T18:12:33;18.55;;;4.83;;
27305;SDS011;14792;50.886;6.468;2022-11-25T18:15:34;21.48;;;4.53;;
27305;SDS011;14792;50.886;6.468;2022-11-25T18:18:36;18.90;;;4.92;;
27305;SDS011;14792;50.886;6.468;2022-11-25T18:21:38;22.15;;;5.95;;
27305;SDS011;14792;50.886;6.468;2022-11-25T18:24:39;25.02;;;5.67;;
27305;SDS011;14792;50.886;6.468;2022-11-25T18:27:41;22.55;;;4.95;;
27305;SDS011;14792;50.886;6.468;2022-11-25T18:30:43;19.32;;;5.33;;
27305;SDS011;14792;50.886;6.468;2022-11-25T18:33:44;21.40;;;5.28;;
27305;SDS011;14792;50.886;6.468;2022-11-25T18:36:46;24.55;;;5.47;;
27305;SDS011;14792;50.886;6.468;2022-11-25T18:39:47;20.72;;;5.00;;
27305;SDS011;14792;50.886;6.468;2022-11-25T18:42:50;25.23;;;4.42;;
27305;SDS011;14792;50.886;6.468;2022-11-25T18:45:51;19.17;;;5.55;;
27305;SDS011;14792;50.886;6.468;2022-11-25T18:48:52;24.07;;;5.30;;
27305;SDS011;14792;50.886;6.468;2022-11-25T18:51:54;25.52;;;5.12;;
27305;SDS011;14792;50.886;6.468;2022-11-25T18:54:55;20.45;;;4.53;;
27305;SDS011;14792;50.886;6.468;2022-11-25T18:57:57;23.02;;;4.37;;
27305;SDS011;14792;50.886;6.468;2022-11-25T19:01:02;25.32;;;5.15;;
27305;SDS011;14792;50.886;6.468;2022-11-25T19:04:03;21.10;;;5.03;;
27305;SDS011;14792;50.886;6.468;2022-11-25T19:07:05;24.60;;;5.83;;
27305;SDS011;14792;50.886;6.468;2022-11-25T19:10:06;23.60;;;5.15;;
27305;SDS011;14792;50.886;6.468;2022-11-25T19:13:11;22.98;;;4.80;;
27305;SDS011;14792;50.886;6.468;2022-11-25T19:16:11;26.12;;;5.12;;
27305;SDS011;14792;50.886;6.468;2022-11-25T19:19:13;22.30;;;4.80;;
27305;SDS011;14792;50.886;6.468;2022-11-25T19:22:14;30.92;;;5.83;;
27305;SDS011;14792;50.886;6.468;2022-11-25T19:25:16;30.32;;;5.20;;
27305;SDS011;14792;50.886;6.468;2022-11-25T19:28:17;21.37;;;4.85;;
27305;SDS011;14792;50.886;6.468;2022-11-25T19:31:19;24.50;;;5.60;;
27305;SDS011;14792;50.886;6.468;2022-11-25T19:34:31;25.05;;;4.08;;
27305;SDS011;14792;50.886;6.468;2022-11-25T19:37:34;20.92;;;5.85;;
27305;SDS011;14792;50.886;6.468;2022-11-25T19:40:35;25.05;;;5.42;;
27305;SDS011;14792;50.886;6.468;2022-11-25T19:43:37;29.30;;;5.20;;
27305;SDS011;14792;50.886;6.468;2022-11-25T19:46:39;27.75;;;6.15;;
27305;SDS011;14792;50.886;6.468;2022-11-25T19:49:41;32.40;;;6.60;;